sensor_id;sensor_type;location;lat;lon;timestamp;pressure;altitude;pressure_sealevel;temperature;humidity
30339;BME280;795;49.296;11.348;2023-04-08T00:00:48;96315.09;;;2.44;100.00
30339;BME280;795;49.296;11.348;2023-04-08T00:03:15;96403.56;;;3.08;100.00
30339;BME280;795;49.296;11.348;2023-04-08T00:05:43;96305.09;;;2.48;100.00
30339;BME280;795;49.296;11.348;2023-04-08T00:08:09;96414.13;;;3.30;100.00
30339;BME280;795;49.296;11.348;2023-04-08T00:10:36;96407.59;;;3.34;100.00
30339;BME280;795;49.296;11.348;2023-04-08T00:13:03;96400.56;;;3.45;100.00
30339;BME280;795;49.296;11.348;2023-04-08T00:15:30;96420.28;;;3.63;100.00
30339;BME280;795;49.296;11.348;2023-04-08T00:17:57;96368.06;;;3.31;100.00
30339;BME280;795;49.296;11.348;2023-04-08T00:20:24;96339.53;;;3.13;100.00
30339;BME280;795;49.296;11.348;2023-04-08T00:22:51;96388.34;;;3.21;100.00
30339;BME280;795;49.296;11.348;2023-04-08T00:25:18;96384.69;;;3.22;100.00
30339;BME280;795;49.296;11.348;2023-04-08T00:27:45;96348.00;;;3.07;100.00
30339;BME280;795;49.296;11.348;2023-04-08T00:30:12;96432.41;;;3.45;100.00
30339;BME280;795;49.296;11.348;2023-04-08T00:32:41;96454.34;;;3.58;100.00
30339;BME280;795;49.296;11.348;2023-04-08T00:35:08;96383.44;;;3.06;100.00
30339;BME280;795;49.296;11.348;2023-04-08T00:37:35;96397.78;;;3.14;100.00
30339;BME280;795;49.296;11.348;2023-04-08T00:40:02;96328.31;;;2.78;100.00
30339;BME280;795;49.296;11.348;2023-04-08T00:42:30;96360.28;;;3.08;100.00
30339;BME280;795;49.296;11.348;2023-04-08T00:44:57;96384.63;;;3.13;100.00
30339;BME280;795;49.296;11.348;2023-04-08T00:47:24;96346.09;;;2.98;100.00
30339;BME280;795;49.296;11.348;2023-04-08T00:49:51;96347.06;;;2.97;100.00
30339;BME280;795;49.296;11.348;2023-04-08T00:52:18;96383.53;;;3.15;100.00
30339;BME280;795;49.296;11.348;2023-04-08T00:54:46;96400.66;;;3.11;100.00
30339;BME280;795;49.296;11.348;2023-04-08T00:57:13;96428.13;;;3.10;100.00
30339;BME280;795;49.296;11.348;2023-04-08T00:59:41;96463.47;;;3.22;100.00
30339;BME280;795;49.296;11.348;2023-04-08T01:02:35;96465.63;;;3.17;100.00
30339;BME280;795;49.296;11.348;2023-04-08T01:06:25;96345.09;;;2.34;100.00
30339;BME280;795;49.296;11.348;2023-04-08T01:08:29;96375.41;;;2.41;100.00
30339;BME280;795;49.296;11.348;2023-04-08T01:11:02;96360.84;;;2.35;100.00
30339;BME280;795;49.296;11.348;2023-04-08T01:13:39;96382.41;;;2.20;100.00
30339;BME280;795;49.296;11.348;2023-04-08T01:16:13;96436.25;;;2.53;100.00
30339;BME280;795;49.296;11.348;2023-04-08T01:18:45;96404.94;;;2.36;100.00
30339;BME280;795;49.296;11.348;2023-04-08T01:21:17;96439.38;;;2.69;100.00
30339;BME280;795;49.296;11.348;2023-04-08T01:24:10;96467.47;;;2.83;100.00
30339;BME280;795;49.296;11.348;2023-04-08T01:26:43;96404.56;;;2.30;100.00
30339;BME280;795;49.296;11.348;2023-04-08T01:29:12;96362.06;;;2.20;100.00
30339;BME280;795;49.296;11.348;2023-04-08T01:31:42;96278.69;;;1.47;100.00
30339;BME280;795;49.296;11.348;2023-04-08T01:34:14;96353.28;;;2.42;100.00
30339;BME280;795;49.296;11.348;2023-04-08T01:36:44;96380.72;;;2.63;100.00
30339;BME280;795;49.296;11.348;2023-04-08T01:39:15;96419.50;;;2.97;100.00
30339;BME280;795;49.296;11.348;2023-04-08T01:41:44;96462.09;;;3.39;100.00
30339;BME280;795;49.296;11.348;2023-04-08T01:44:15;96409.09;;;3.05;100.00
30339;BME280;795;49.296;11.348;2023-04-08T01:46:43;96455.34;;;3.34;100.00
30339;BME280;795;49.296;11.348;2023-04-08T01:49:11;96347.34;;;2.72;100.00
30339;BME280;795;49.296;11.348;2023-04-08T01:51:39;96306.66;;;2.50;100.00
30339;BME280;795;49.296;11.348;2023-04-08T01:54:06;96462.09;;;3.39;100.00
30339;BME280;795;49.296;11.348;2023-04-08T01:56:40;96439.69;;;3.31;100.00
30339;BME280;795;49.296;11.348;2023-04-08T01:59:14;96372.13;;;2.82;100.00
30339;BME280;795;49.296;11.348;2023-04-08T02:01:44;96365.13;;;2.92;100.00
30339;BME280;795;49.296;11.348;2023-04-08T02:04:13;96365.28;;;2.90;100.00
30339;BME280;795;49.296;11.348;2023-04-08T02:06:40;96453.78;;;3.43;100.00
30339;BME280;795;49.296;11.348;2023-04-08T02:09:07;96454.00;;;3.51;100.00
30339;BME280;795;49.296;11.348;2023-04-08T02:11:34;96376.09;;;2.98;100.00
30339;BME280;795;49.296;11.348;2023-04-08T02:14:01;96444.16;;;3.31;100.00
30339;BME280;795;49.296;11.348;2023-04-08T02:19:52;96462.63;;;3.21;100.00
30339;BME280;795;49.296;11.348;2023-04-08T02:22:54;96468.66;;;3.12;100.00
30339;BME280;795;49.296;11.348;2023-04-08T02:25:25;96381.19;;;2.68;100.00
30339;BME280;795;49.296;11.348;2023-04-08T02:27:54;96369.38;;;2.72;100.00
30339;BME280;795;49.296;11.348;2023-04-08T02:30:25;96460.91;;;3.31;100.00
30339;BME280;795;49.296;11.348;2023-04-08T02:32:55;96433.69;;;3.18;100.00
30339;BME280;795;49.296;11.348;2023-04-08T02:35:24;96314.84;;;2.47;100.00
30339;BME280;795;49.296;11.348;2023-04-08T02:37:53;96416.47;;;2.91;100.00
30339;BME280;795;49.296;11.348;2023-04-08T02:40:32;96368.81;;;2.68;100.00
30339;BME280;795;49.296;11.348;2023-04-08T02:43:01;96468.41;;;3.26;100.00
30339;BME280;795;49.296;11.348;2023-04-08T02:45:42;96464.66;;;3.29;100.00
30339;BME280;795;49.296;11.348;2023-04-08T02:48:10;96463.94;;;3.27;100.00
30339;BME280;795;49.296;11.348;2023-04-08T02:50:37;96471.28;;;3.23;100.00
30339;BME280;795;49.296;11.348;2023-04-08T02:53:04;96392.41;;;2.83;100.00
30339;BME280;795;49.296;11.348;2023-04-08T02:55:31;96409.72;;;2.87;100.00
30339;BME280;795;49.296;11.348;2023-04-08T02:57:58;96423.56;;;3.01;100.00
30339;BME280;795;49.296;11.348;2023-04-08T03:00:25;96424.09;;;2.95;100.00
30339;BME280;795;49.296;11.348;2023-04-08T03:02:51;96364.09;;;2.61;100.00
30339;BME280;795;49.296;11.348;2023-04-08T03:05:19;96466.09;;;3.33;100.00
30339;BME280;795;49.296;11.348;2023-04-08T03:07:47;96376.75;;;2.57;100.00
30339;BME280;795;49.296;11.348;2023-04-08T03:10:14;96384.44;;;2.72;100.00
30339;BME280;795;49.296;11.348;2023-04-08T03:12:41;96361.81;;;2.67;100.00
30339;BME280;795;49.296;11.348;2023-04-08T03:15:09;96388.66;;;2.85;100.00
30339;BME280;795;49.296;11.348;2023-04-08T03:17:36;96448.88;;;3.16;100.00
30339;BME280;795;49.296;11.348;2023-04-08T03:20:03;96438.91;;;2.76;100.00
30339;BME280;795;49.296;11.348;2023-04-08T03:22:35;96357.00;;;2.39;100.00
30339;BME280;795;49.296;11.348;2023-04-08T03:25:02;96438.53;;;3.02;100.00
30339;BME280;795;49.296;11.348;2023-04-08T03:27:30;96399.63;;;2.58;100.00
30339;BME280;795;49.296;11.348;2023-04-08T03:29:56;96432.66;;;2.88;100.00
30339;BME280;795;49.296;11.348;2023-04-08T03:32:24;96404.34;;;2.88;100.00
30339;BME280;795;49.296;11.348;2023-04-08T03:34:51;96385.78;;;2.88;100.00
30339;BME280;795;49.296;11.348;2023-04-08T03:37:19;96420.19;;;3.21;100.00
30339;BME280;795;49.296;11.348;2023-04-08T03:39:46;96405.44;;;3.17;100.00
30339;BME280;795;49.296;11.348;2023-04-08T03:42:13;96484.72;;;3.65;100.00
30339;BME280;795;49.296;11.348;2023-04-08T03:44:39;96450.69;;;3.27;100.00
30339;BME280;795;49.296;11.348;2023-04-08T03:47:06;96498.97;;;3.53;100.00
30339;BME280;795;49.296;11.348;2023-04-08T03:49:33;96444.00;;;3.44;100.00
30339;BME280;795;49.296;11.348;2023-04-08T03:52:00;96413.66;;;3.25;100.00
30339;BME280;795;49.296;11.348;2023-04-08T03:54:27;96482.63;;;3.68;100.00
30339;BME280;795;49.296;11.348;2023-04-08T03:56:54;96460.97;;;3.52;100.00
30339;BME280;795;49.296;11.348;2023-04-08T03:59:21;96417.75;;;3.18;100.00
30339;BME280;795;49.296;11.348;2023-04-08T04:01:49;96436.09;;;3.21;100.00
30339;BME280;795;49.296;11.348;2023-04-08T04:04:17;96474.66;;;3.25;100.00
30339;BME280;795;49.296;11.348;2023-04-08T04:06:44;96401.31;;;2.93;100.00
30339;BME280;795;49.296;11.348;2023-04-08T04:09:11;96415.25;;;3.06;100.00
30339;BME280;795;49.296;11.348;2023-04-08T04:11:38;96394.78;;;2.97;100.00
30339;BME280;795;49.296;11.348;2023-04-08T04:14:05;96462.34;;;3.35;100.00
30339;BME280;795;49.296;11.348;2023-04-08T04:16:32;96464.25;;;3.45;100.00
30339;BME280;795;49.296;11.348;2023-04-08T04:18:59;96411.28;;;3.11;100.00
30339;BME280;795;49.296;11.348;2023-04-08T04:21:26;96488.41;;;3.73;100.00
30339;BME280;795;49.296;11.348;2023-04-08T04:23:53;96491.06;;;3.73;100.00
30339;BME280;795;49.296;11.348;2023-04-08T04:26:20;96430.97;;;3.41;100.00
30339;BME280;795;49.296;11.348;2023-04-08T04:28:47;96383.16;;;3.20;100.00
30339;BME280;795;49.296;11.348;2023-04-08T04:31:21;96423.16;;;3.39;100.00
30339;BME280;795;49.296;11.348;2023-04-08T04:33:48;96440.13;;;3.48;100.00
30339;BME280;795;49.296;11.348;2023-04-08T04:36:15;96421.22;;;3.41;100.00
30339;BME280;795;49.296;11.348;2023-04-08T04:38:43;96497.28;;;3.94;100.00
30339;BME280;795;49.296;11.348;2023-04-08T04:41:11;96507.09;;;3.83;100.00
30339;BME280;795;49.296;11.348;2023-04-08T04:43:38;96482.41;;;3.71;100.00
30339;BME280;795;49.296;11.348;2023-04-08T04:46:05;96481.31;;;3.74;100.00
30339;BME280;795;49.296;11.348;2023-04-08T04:48:35;96463.81;;;3.71;100.00
30339;BME280;795;49.296;11.348;2023-04-08T04:51:02;96404.69;;;3.38;100.00
30339;BME280;795;49.296;11.348;2023-04-08T04:53:32;96402.16;;;3.36;100.00
30339;BME280;795;49.296;11.348;2023-04-08T04:55:59;96484.03;;;3.94;100.00
30339;BME280;795;49.296;11.348;2023-04-08T04:58:28;96454.50;;;3.77;100.00
30339;BME280;795;49.296;11.348;2023-04-08T05:00:56;96510.09;;;4.21;100.00
30339;BME280;795;49.296;11.348;2023-04-08T05:03:23;96465.69;;;3.91;100.00
30339;BME280;795;49.296;11.348;2023-04-08T05:05:52;96428.97;;;3.65;100.00
30339;BME280;795;49.296;11.348;2023-04-08T05:08:21;96519.50;;;4.25;100.00
30339;BME280;795;49.296;11.348;2023-04-08T05:10:48;96474.44;;;4.03;100.00
30339;BME280;795;49.296;11.348;2023-04-08T05:13:18;96515.22;;;4.34;100.00
30339;BME280;795;49.296;11.348;2023-04-08T05:15:45;96524.75;;;4.36;100.00
30339;BME280;795;49.296;11.348;2023-04-08T05:18:12;96391.97;;;3.52;100.00
30339;BME280;795;49.296;11.348;2023-04-08T05:20:39;96509.66;;;4.16;99.93
30339;BME280;795;49.296;11.348;2023-04-08T05:23:07;96536.69;;;4.42;99.54
30339;BME280;795;49.296;11.348;2023-04-08T05:25:34;96531.75;;;4.37;100.00
30339;BME280;795;49.296;11.348;2023-04-08T05:28:01;96469.44;;;4.10;100.00
30339;BME280;795;49.296;11.348;2023-04-08T05:30:29;96500.19;;;4.44;99.15
30339;BME280;795;49.296;11.348;2023-04-08T05:32:56;96548.97;;;4.75;99.47
30339;BME280;795;49.296;11.348;2023-04-08T05:35:27;96534.78;;;4.64;99.54
30339;BME280;795;49.296;11.348;2023-04-08T05:37:55;96510.19;;;4.51;100.00
30339;BME280;795;49.296;11.348;2023-04-08T05:40:22;96545.78;;;4.60;100.00
30339;BME280;795;49.296;11.348;2023-04-08T05:42:49;96427.09;;;3.76;100.00
30339;BME280;795;49.296;11.348;2023-04-08T05:45:16;96511.91;;;4.21;100.00
30339;BME280;795;49.296;11.348;2023-04-08T05:47:43;96496.31;;;3.95;100.00
30339;BME280;795;49.296;11.348;2023-04-08T05:50:10;96525.47;;;3.75;100.00
30339;BME280;795;49.296;11.348;2023-04-08T05:52:43;96558.38;;;3.94;100.00
30339;BME280;795;49.296;11.348;2023-04-08T05:55:13;96527.94;;;3.56;100.00
30339;BME280;795;49.296;11.348;2023-04-08T05:57:40;96501.31;;;3.13;100.00
30339;BME280;795;49.296;11.348;2023-04-08T06:00:10;96584.63;;;3.55;100.00
30339;BME280;795;49.296;11.348;2023-04-08T06:02:37;96449.88;;;2.71;100.00
30339;BME280;795;49.296;11.348;2023-04-08T06:05:05;96575.50;;;3.37;100.00
30339;BME280;795;49.296;11.348;2023-04-08T06:07:32;96520.59;;;3.15;100.00
30339;BME280;795;49.296;11.348;2023-04-08T06:10:00;96525.06;;;2.92;100.00
30339;BME280;795;49.296;11.348;2023-04-08T06:12:27;96465.28;;;2.55;100.00
30339;BME280;795;49.296;11.348;2023-04-08T06:14:55;96583.44;;;3.25;100.00
30339;BME280;795;49.296;11.348;2023-04-08T06:17:22;96546.38;;;2.80;100.00
30339;BME280;795;49.296;11.348;2023-04-08T06:19:49;96525.16;;;2.91;100.00
30339;BME280;795;49.296;11.348;2023-04-08T06:22:16;96512.28;;;2.75;100.00
30339;BME280;795;49.296;11.348;2023-04-08T06:24:43;96525.75;;;2.72;100.00
30339;BME280;795;49.296;11.348;2023-04-08T06:27:09;96418.63;;;2.08;100.00
30339;BME280;795;49.296;11.348;2023-04-08T06:29:36;96423.16;;;2.06;100.00
30339;BME280;795;49.296;11.348;2023-04-08T06:32:04;96581.97;;;2.99;100.00
30339;BME280;795;49.296;11.348;2023-04-08T06:34:32;96615.63;;;3.10;100.00
30339;BME280;795;49.296;11.348;2023-04-08T06:36:59;96564.44;;;2.75;100.00
30339;BME280;795;49.296;11.348;2023-04-08T06:39:26;96470.88;;;2.28;100.00
30339;BME280;795;49.296;11.348;2023-04-08T06:41:52;96435.59;;;2.06;100.00
30339;BME280;795;49.296;11.348;2023-04-08T06:44:20;96494.38;;;2.33;100.00
30339;BME280;795;49.296;11.348;2023-04-08T06:46:47;96561.94;;;2.73;100.00
30339;BME280;795;49.296;11.348;2023-04-08T06:49:14;96550.19;;;2.53;100.00
30339;BME280;795;49.296;11.348;2023-04-08T06:51:41;96516.69;;;2.52;100.00
30339;BME280;795;49.296;11.348;2023-04-08T06:54:08;96548.72;;;2.95;100.00
30339;BME280;795;49.296;11.348;2023-04-08T06:56:36;96513.03;;;2.88;100.00
30339;BME280;795;49.296;11.348;2023-04-08T06:59:03;96607.06;;;3.40;100.00
30339;BME280;795;49.296;11.348;2023-04-08T07:01:33;96628.66;;;3.57;100.00
30339;BME280;795;49.296;11.348;2023-04-08T07:04:00;96512.03;;;2.67;100.00
30339;BME280;795;49.296;11.348;2023-04-08T07:06:28;96581.69;;;2.91;100.00
30339;BME280;795;49.296;11.348;2023-04-08T07:08:55;96602.81;;;3.04;100.00
30339;BME280;795;49.296;11.348;2023-04-08T07:11:22;96647.38;;;3.33;100.00
30339;BME280;795;49.296;11.348;2023-04-08T07:13:49;96538.31;;;2.70;100.00
30339;BME280;795;49.296;11.348;2023-04-08T07:16:16;96536.38;;;2.61;100.00
30339;BME280;795;49.296;11.348;2023-04-08T07:18:43;96643.13;;;3.31;100.00
30339;BME280;795;49.296;11.348;2023-04-08T07:21:10;96614.66;;;3.11;100.00
30339;BME280;795;49.296;11.348;2023-04-08T07:23:38;96625.97;;;3.02;100.00
30339;BME280;795;49.296;11.348;2023-04-08T07:26:05;96613.28;;;2.94;100.00
30339;BME280;795;49.296;11.348;2023-04-08T07:28:32;96669.31;;;3.24;100.00
30339;BME280;795;49.296;11.348;2023-04-08T07:31:16;96631.63;;;3.08;100.00
30339;BME280;795;49.296;11.348;2023-04-08T07:33:45;96672.91;;;3.23;100.00
30339;BME280;795;49.296;11.348;2023-04-08T07:36:13;96676.78;;;3.19;100.00
30339;BME280;795;49.296;11.348;2023-04-08T07:38:40;96575.91;;;2.75;100.00
30339;BME280;795;49.296;11.348;2023-04-08T07:41:07;96587.44;;;2.74;100.00
30339;BME280;795;49.296;11.348;2023-04-08T07:43:35;96621.38;;;3.04;100.00
30339;BME280;795;49.296;11.348;2023-04-08T07:46:06;96661.69;;;3.20;100.00
30339;BME280;795;49.296;11.348;2023-04-08T07:48:34;96670.53;;;3.31;100.00
30339;BME280;795;49.296;11.348;2023-04-08T07:51:08;96667.38;;;3.26;100.00
30339;BME280;795;49.296;11.348;2023-04-08T07:53:38;96685.38;;;3.45;100.00
30339;BME280;795;49.296;11.348;2023-04-08T07:56:15;96673.41;;;3.40;100.00
30339;BME280;795;49.296;11.348;2023-04-08T07:58:45;96648.78;;;3.15;100.00
30339;BME280;795;49.296;11.348;2023-04-08T08:03:43;96659.66;;;3.23;100.00
30339;BME280;795;49.296;11.348;2023-04-08T08:06:12;96674.00;;;3.21;100.00
30339;BME280;795;49.296;11.348;2023-04-08T08:08:39;96591.00;;;2.86;100.00
30339;BME280;795;49.296;11.348;2023-04-08T08:11:06;96681.84;;;3.45;100.00
30339;BME280;795;49.296;11.348;2023-04-08T08:13:33;96685.59;;;3.42;100.00
30339;BME280;795;49.296;11.348;2023-04-08T08:16:00;96678.13;;;3.36;100.00
30339;BME280;795;49.296;11.348;2023-04-08T08:18:27;96692.00;;;3.51;100.00
30339;BME280;795;49.296;11.348;2023-04-08T08:20:54;96629.75;;;3.21;100.00
30339;BME280;795;49.296;11.348;2023-04-08T08:23:21;96712.75;;;3.57;100.00
30339;BME280;795;49.296;11.348;2023-04-08T08:25:49;96667.38;;;3.38;100.00
30339;BME280;795;49.296;11.348;2023-04-08T08:28:24;96680.19;;;3.44;100.00
30339;BME280;795;49.296;11.348;2023-04-08T08:30:51;96651.34;;;3.39;100.00
30339;BME280;795;49.296;11.348;2023-04-08T08:33:18;96721.22;;;3.95;100.00
30339;BME280;795;49.296;11.348;2023-04-08T08:35:45;96669.94;;;3.72;100.00
30339;BME280;795;49.296;11.348;2023-04-08T08:38:12;96712.06;;;3.99;100.00
30339;BME280;795;49.296;11.348;2023-04-08T08:40:39;96711.19;;;4.10;100.00
30339;BME280;795;49.296;11.348;2023-04-08T08:43:06;96721.56;;;4.13;100.00
30339;BME280;795;49.296;11.348;2023-04-08T08:45:42;96653.03;;;3.73;100.00
30339;BME280;795;49.296;11.348;2023-04-08T08:48:09;96721.44;;;4.25;100.00
30339;BME280;795;49.296;11.348;2023-04-08T08:50:36;96624.31;;;3.67;100.00
30339;BME280;795;49.296;11.348;2023-04-08T08:53:03;96698.69;;;4.43;100.00
30339;BME280;795;49.296;11.348;2023-04-08T08:55:31;96705.38;;;4.27;100.00
30339;BME280;795;49.296;11.348;2023-04-08T08:58:25;96726.31;;;4.63;100.00
30339;BME280;795;49.296;11.348;2023-04-08T09:00:52;96664.22;;;4.21;100.00
30339;BME280;795;49.296;11.348;2023-04-08T09:03:26;96689.69;;;4.24;100.00
30339;BME280;795;49.296;11.348;2023-04-08T09:05:59;96736.72;;;4.66;100.00
30339;BME280;795;49.296;11.348;2023-04-08T09:08:32;96735.63;;;5.00;100.00
30339;BME280;795;49.296;11.348;2023-04-08T09:11:19;96664.66;;;4.69;100.00
30339;BME280;795;49.296;11.348;2023-04-08T09:13:49;96707.41;;;5.09;100.00
30339;BME280;795;49.296;11.348;2023-04-08T09:16:18;96686.66;;;5.23;100.00
30339;BME280;795;49.296;11.348;2023-04-08T09:18:46;96720.47;;;5.94;100.00
30339;BME280;795;49.296;11.348;2023-04-08T09:21:16;96665.47;;;5.63;100.00
30339;BME280;795;49.296;11.348;2023-04-08T09:23:51;96613.06;;;5.13;100.00
30339;BME280;795;49.296;11.348;2023-04-08T09:26:23;96714.03;;;5.97;100.00
30339;BME280;795;49.296;11.348;2023-04-08T09:29:10;96709.28;;;5.80;100.00
30339;BME280;795;49.296;11.348;2023-04-08T09:31:57;96634.78;;;5.38;100.00
30339;BME280;795;49.296;11.348;2023-04-08T09:34:28;96727.22;;;5.78;100.00
30339;BME280;795;49.296;11.348;2023-04-08T09:36:55;96673.16;;;5.36;100.00
30339;BME280;795;49.296;11.348;2023-04-08T09:39:22;96665.19;;;5.15;100.00
30339;BME280;795;49.296;11.348;2023-04-08T09:41:51;96728.41;;;5.23;100.00
30339;BME280;795;49.296;11.348;2023-04-08T09:44:20;96629.22;;;4.48;100.00
30339;BME280;795;49.296;11.348;2023-04-08T09:46:55;96740.78;;;5.13;100.00
30339;BME280;795;49.296;11.348;2023-04-08T09:49:45;96737.19;;;5.03;100.00
30339;BME280;795;49.296;11.348;2023-04-08T09:52:38;96714.06;;;4.83;100.00
30339;BME280;795;49.296;11.348;2023-04-08T09:55:12;96747.91;;;5.12;100.00
30339;BME280;795;49.296;11.348;2023-04-08T09:58:15;96727.59;;;4.80;100.00
30339;BME280;795;49.296;11.348;2023-04-08T10:00:49;96755.22;;;4.99;100.00
30339;BME280;795;49.296;11.348;2023-04-08T10:03:28;96752.69;;;4.98;100.00
30339;BME280;795;49.296;11.348;2023-04-08T10:06:00;96760.88;;;4.74;100.00
30339;BME280;795;49.296;11.348;2023-04-08T10:08:29;96701.09;;;4.46;100.00
30339;BME280;795;49.296;11.348;2023-04-08T10:10:57;96675.75;;;4.31;100.00
30339;BME280;795;49.296;11.348;2023-04-08T10:13:26;96640.97;;;3.91;100.00
30339;BME280;795;49.296;11.348;2023-04-08T10:18:47;96764.00;;;4.79;100.00
30339;BME280;795;49.296;11.348;2023-04-08T10:21:41;96759.13;;;4.95;100.00
30339;BME280;795;49.296;11.348;2023-04-08T10:24:15;96691.41;;;4.56;100.00
30339;BME280;795;49.296;11.348;2023-04-08T10:26:45;96751.47;;;5.02;100.00
30339;BME280;795;49.296;11.348;2023-04-08T10:31:49;96700.13;;;4.90;100.00
30339;BME280;795;49.296;11.348;2023-04-08T10:34:23;96762.63;;;5.27;100.00
30339;BME280;795;49.296;11.348;2023-04-08T10:36:55;96750.81;;;5.62;100.00
30339;BME280;795;49.296;11.348;2023-04-08T10:39:25;96719.88;;;5.70;100.00
30339;BME280;795;49.296;11.348;2023-04-08T10:41:53;96709.03;;;5.83;100.00
30339;BME280;795;49.296;11.348;2023-04-08T10:44:24;96738.53;;;6.21;100.00
30339;BME280;795;49.296;11.348;2023-04-08T10:46:53;96692.97;;;6.34;100.00
30339;BME280;795;49.296;11.348;2023-04-08T10:49:21;96721.53;;;6.13;100.00
30339;BME280;795;49.296;11.348;2023-04-08T10:51:48;96684.00;;;5.95;100.00
30339;BME280;795;49.296;11.348;2023-04-08T10:54:17;96744.78;;;6.11;100.00
30339;BME280;795;49.296;11.348;2023-04-08T10:56:50;96751.06;;;6.00;100.00
30339;BME280;795;49.296;11.348;2023-04-08T10:59:29;96758.78;;;5.82;100.00
30339;BME280;795;49.296;11.348;2023-04-08T11:01:57;96715.16;;;5.53;100.00
30339;BME280;795;49.296;11.348;2023-04-08T11:04:26;96755.94;;;5.74;100.00
30339;BME280;795;49.296;11.348;2023-04-08T11:06:53;96683.84;;;5.46;100.00
30339;BME280;795;49.296;11.348;2023-04-08T11:09:20;96703.69;;;5.83;100.00
30339;BME280;795;49.296;11.348;2023-04-08T11:11:47;96738.91;;;6.47;100.00
30339;BME280;795;49.296;11.348;2023-04-08T11:14:16;96715.66;;;6.68;100.00
30339;BME280;795;49.296;11.348;2023-04-08T11:16:45;96681.50;;;6.52;100.00
30339;BME280;795;49.296;11.348;2023-04-08T11:19:13;96671.66;;;6.43;100.00
30339;BME280;795;49.296;11.348;2023-04-08T11:21:40;96750.38;;;6.78;100.00
30339;BME280;795;49.296;11.348;2023-04-08T11:24:11;96641.06;;;6.38;100.00
30339;BME280;795;49.296;11.348;2023-04-08T11:26:40;96745.63;;;7.19;100.00
30339;BME280;795;49.296;11.348;2023-04-08T11:29:11;96714.44;;;7.01;100.00
30339;BME280;795;49.296;11.348;2023-04-08T11:31:42;96753.78;;;7.27;100.00
30339;BME280;795;49.296;11.348;2023-04-08T11:34:10;96668.88;;;6.64;100.00
30339;BME280;795;49.296;11.348;2023-04-08T11:36:40;96653.13;;;6.42;100.00
30339;BME280;795;49.296;11.348;2023-04-08T11:39:08;96742.56;;;7.33;100.00
30339;BME280;795;49.296;11.348;2023-04-08T11:41:39;96655.84;;;6.80;100.00
30339;BME280;795;49.296;11.348;2023-04-08T11:44:08;96640.81;;;7.08;100.00
30339;BME280;795;49.296;11.348;2023-04-08T11:46:36;96712.09;;;7.73;100.00
30339;BME280;795;49.296;11.348;2023-04-08T11:49:08;96714.09;;;7.71;100.00
30339;BME280;795;49.296;11.348;2023-04-08T11:51:56;96721.25;;;7.80;100.00
30339;BME280;795;49.296;11.348;2023-04-08T11:54:31;96691.09;;;7.41;100.00
30339;BME280;795;49.296;11.348;2023-04-08T11:56:59;96624.25;;;6.95;100.00
30339;BME280;795;49.296;11.348;2023-04-08T11:59:26;96735.03;;;7.66;100.00
30339;BME280;795;49.296;11.348;2023-04-08T12:01:56;96735.22;;;7.55;100.00
30339;BME280;795;49.296;11.348;2023-04-08T12:04:23;96730.56;;;7.57;100.00
30339;BME280;795;49.296;11.348;2023-04-08T12:06:51;96725.81;;;7.51;100.00
30339;BME280;795;49.296;11.348;2023-04-08T12:09:19;96739.84;;;7.62;100.00
30339;BME280;795;49.296;11.348;2023-04-08T12:11:46;96739.84;;;7.72;100.00
30339;BME280;795;49.296;11.348;2023-04-08T12:14:13;96718.03;;;7.67;100.00
30339;BME280;795;49.296;11.348;2023-04-08T12:16:40;96706.00;;;7.53;100.00
30339;BME280;795;49.296;11.348;2023-04-08T12:19:08;96648.69;;;7.19;100.00
30339;BME280;795;49.296;11.348;2023-04-08T12:21:35;96752.06;;;7.84;100.00
30339;BME280;795;49.296;11.348;2023-04-08T12:24:02;96728.19;;;7.25;100.00
30339;BME280;795;49.296;11.348;2023-04-08T12:26:29;96744.09;;;7.55;100.00
30339;BME280;795;49.296;11.348;2023-04-08T12:28:56;96711.34;;;7.53;100.00
30339;BME280;795;49.296;11.348;2023-04-08T12:31:22;96712.69;;;7.67;100.00
30339;BME280;795;49.296;11.348;2023-04-08T12:33:49;96745.13;;;8.00;100.00
30339;BME280;795;49.296;11.348;2023-04-08T12:36:17;96757.44;;;7.46;100.00
30339;BME280;795;49.296;11.348;2023-04-08T12:38:44;96765.31;;;7.57;100.00
30339;BME280;795;49.296;11.348;2023-04-08T12:41:10;96734.66;;;7.51;100.00
30339;BME280;795;49.296;11.348;2023-04-08T12:43:37;96675.81;;;7.24;100.00
30339;BME280;795;49.296;11.348;2023-04-08T12:46:05;96763.06;;;7.52;100.00
30339;BME280;795;49.296;11.348;2023-04-08T12:48:32;96707.13;;;7.03;100.00
30339;BME280;795;49.296;11.348;2023-04-08T12:50:58;96709.25;;;6.99;100.00
30339;BME280;795;49.296;11.348;2023-04-08T12:53:25;96711.47;;;6.94;100.00
30339;BME280;795;49.296;11.348;2023-04-08T12:55:52;96713.44;;;6.92;100.00
30339;BME280;795;49.296;11.348;2023-04-08T12:58:23;96730.56;;;6.80;100.00
30339;BME280;795;49.296;11.348;2023-04-08T13:00:51;96735.22;;;6.88;100.00
30339;BME280;795;49.296;11.348;2023-04-08T13:03:18;96644.69;;;6.27;100.00
30339;BME280;795;49.296;11.348;2023-04-08T13:05:45;96768.50;;;6.93;100.00
30339;BME280;795;49.296;11.348;2023-04-08T13:08:12;96643.06;;;6.06;100.00
30339;BME280;795;49.296;11.348;2023-04-08T13:10:41;96631.19;;;5.79;100.00
30339;BME280;795;49.296;11.348;2023-04-08T13:13:08;96764.72;;;6.37;100.00
30339;BME280;795;49.296;11.348;2023-04-08T13:15:35;96774.34;;;6.28;100.00
30339;BME280;795;49.296;11.348;2023-04-08T13:18:02;96766.50;;;6.27;100.00
30339;BME280;795;49.296;11.348;2023-04-08T13:20:30;96776.16;;;6.28;100.00
30339;BME280;795;49.296;11.348;2023-04-08T13:22:57;96746.34;;;6.13;100.00
30339;BME280;795;49.296;11.348;2023-04-08T13:25:24;96735.25;;;6.08;100.00
30339;BME280;795;49.296;11.348;2023-04-08T13:27:51;96709.97;;;5.82;100.00
30339;BME280;795;49.296;11.348;2023-04-08T13:30:18;96687.41;;;5.76;100.00
30339;BME280;795;49.296;11.348;2023-04-08T13:32:45;96795.59;;;6.39;100.00